New Orleans Nas Jrb/Alvin Callender Field/ Airport
KNBG : now visible

Airfield :











YOU CAN JOIN US ON...

 
LOGIN :

Register | Disclaimer

   EN    FR    IT 

 









Legend :    VFR   Marginal VFR   IFR   Intensive IFR   Very Intensive IFR
Visi :
Ceiling :
>= 8 km
>= 3000ft
5 to 8 km
1000 to 3000 ft
1500m to 5 km
500 to 1000 ft
800 to 1500m
200 to 500 ft
< 800m
< 200 ft
Symbols :   Thunderstorms  Fog  Heavy snow  Heavy precipitations  Wind > 20 kt







- Airport Elevation : 2 ft


KNBG - New Orleans Nas Jrb/Alvin Callender Field/

CURRENT METAR :
  • 211655Z 02008KT 7SM SCT020CB BKN040 BKN075 OVC250 28/26 A3008 RMK AO2 RAE04 SLP183 CB NE MOV NE T1 SET P0001 T02830261 $

EXPIRED METARs :
  • 211602Z 01005KT 7SM -RA SCT020CB BKN028 BKN130 BKN250 27/25 A3008 RMK AO2 CB NW-N MOV NE T1 SET P0000 T02720250 $
  • 211555Z 33006KT 7SM -RA SCT022CB BKN034 BKN130 BKN250 28/26 A3008 RMK AO2 RAB12 SLP183 CB NW-N MOV SE T1 SET P0000 T02780261 $
  • 211507Z 28003KT 10SM BKN027CB BKN075 BKN250 29/25 A3007 RMK AO2 CB W AND NW-N MOV NE T1 SET T02940250 $
  • 211455Z 17005KT 10SM SCT025CB BKN070 BKN250 30/26 A3006 RMK AO2 SLP180 CB NW MOV NE T1 SET T03000256 53008 $

TAF TAF KNBG
Valid from the 21 at 15:00 until the 22 at 15:00 UTC


2115/2215 VRB06KT 9999 SCT020CB BKN070 BKN130 BKN250 QNH3000INS
TEMPO 2115/2121 VRB25G35KT 1600 +TSRA BR BKN013CB BKN030 OVC070
BECMG 2121/2123 13010KT 9999 VCTS SCT030CB BKN035 BKN130 BKN250 QNH2997INS
TEMPO 2121/2201 VRB20G30KT 3200 TSRA BR BKN025CB BKN100 OVC250
BECMG 2201/2203 13005KT 9999 NSW SCT035 SCT130 BKN250 QNH2995INS
BECMG 2206/2208 VRB05KT 4800 BR SCT020 SCT110 BKN250 QNH2994INS
BECMG 2212/2214 10006KT 9999 VCTS SCT020CB BKN030 BKN100 OVC250 QNH2996INS T33/2121Z T26/2212Z FN20039
No reported NOTAMs for that airfield.



MET'MAP, your aeronautical weather chart ! - Copyright ORBIFLY December 2007 - Disclaimer

ORBIFLY MET'MAP TEAM :

Programming & Development : Alexandra Zaïnal
Concept & Development : Baudouin d'Aumeries
Co-Development & Prog : Marc-Olivier Méhu
Technical & hardware support : Manuel Goepfert

Contact : metmap@orbifly.com




SOURCES & CREDITS :

   NOAA       Earth
Advisory